createdAt,value
2018-11-27T00:00:33.629Z,17.97
2018-11-27T00:03:08.100Z,15.20
2018-11-27T00:05:42.096Z,17.07
2018-11-27T00:08:16.105Z,15.80
2018-11-27T00:10:49.994Z,17.17
2018-11-27T00:13:23.820Z,16.97
2018-11-27T00:15:57.792Z,15.80
2018-11-27T00:18:32.755Z,18.17
2018-11-27T00:21:07.760Z,15.40
2018-11-27T00:23:41.690Z,16.57
2018-11-27T00:26:15.609Z,16.90
2018-11-27T00:28:56.000Z,16.40
2018-11-27T00:31:30.281Z,16.63
2018-11-27T00:34:04.243Z,16.77
2018-11-27T00:36:38.081Z,15.90
2018-11-27T00:39:12.499Z,15.17
2018-11-27T00:41:47.341Z,16.60
2018-11-27T00:44:21.540Z,16.13
2018-11-27T00:46:55.416Z,17.33
2018-11-27T00:49:29.560Z,17.50
2018-11-27T00:52:03.883Z,16.97
2018-11-27T00:54:38.184Z,16.87
2018-11-27T00:57:12.973Z,17.00
2018-11-27T00:59:47.291Z,16.93
2018-11-27T01:02:21.942Z,17.17
2018-11-27T01:04:56.177Z,18.53
2018-11-27T01:07:30.282Z,17.20
2018-11-27T01:10:07.128Z,19.37
2018-11-27T01:12:41.852Z,17.97
2018-11-27T01:15:17.006Z,17.10
2018-11-27T01:17:51.721Z,18.03
2018-11-27T01:20:26.161Z,17.87
2018-11-27T01:23:00.163Z,19.80
2018-11-27T01:25:34.014Z,17.40
2018-11-27T01:28:07.968Z,17.67
2018-11-27T01:30:41.959Z,19.37
2018-11-27T01:33:15.964Z,16.00
2018-11-27T01:35:49.963Z,17.00
2018-11-27T01:38:24.004Z,18.83
2018-11-27T01:40:57.875Z,19.53
2018-11-27T01:43:31.808Z,15.93
2018-11-27T01:46:05.859Z,20.00
2018-11-27T01:48:39.789Z,17.83
2018-11-27T01:51:13.881Z,18.43
2018-11-27T01:53:47.796Z,17.83
2018-11-27T01:56:21.842Z,20.40
2018-11-27T01:58:55.655Z,17.77
2018-11-27T02:01:29.555Z,17.20
2018-11-27T02:04:03.545Z,17.87
2018-11-27T02:06:37.598Z,19.20
2018-11-27T02:09:11.591Z,18.53
2018-11-27T02:11:45.675Z,21.03
2018-11-27T02:14:19.661Z,20.70
2018-11-27T02:16:53.560Z,17.93
2018-11-27T02:19:27.424Z,18.50
2018-11-27T02:22:01.493Z,18.60
2018-11-27T02:24:35.356Z,22.23
2018-11-27T02:27:09.239Z,18.10
2018-11-27T02:29:43.887Z,17.40
2018-11-27T02:32:17.747Z,17.90
2018-11-27T02:34:52.903Z,20.33
2018-11-27T02:37:27.896Z,16.80
2018-11-27T02:40:02.195Z,19.17
2018-11-27T02:42:36.529Z,18.37
2018-11-27T02:45:11.331Z,20.10
2018-11-27T02:47:46.444Z,20.67
2018-11-27T02:50:21.486Z,18.13
2018-11-27T02:52:55.524Z,18.77
2018-11-27T02:55:29.619Z,19.30
2018-11-27T02:58:08.801Z,19.20
2018-11-27T03:00:42.842Z,17.63
2018-11-27T03:03:17.154Z,18.67
2018-11-27T03:05:51.018Z,19.17
2018-11-27T03:08:25.192Z,18.77
2018-11-27T03:10:59.216Z,18.03
2018-11-27T03:13:33.432Z,19.43
2018-11-27T03:16:07.550Z,19.00
2018-11-27T03:18:41.497Z,18.70
2018-11-27T03:21:15.417Z,18.50
2018-11-27T03:23:49.430Z,19.23
2018-11-27T03:26:23.417Z,19.10
2018-11-27T03:28:57.588Z,18.20
2018-11-27T03:31:31.578Z,16.30
2018-11-27T03:34:06.016Z,19.20
2018-11-27T03:36:40.231Z,17.77
2018-11-27T03:39:14.657Z,18.60
2018-11-27T03:41:48.588Z,18.67
2018-11-27T03:44:22.535Z,18.43
2018-11-27T03:46:56.381Z,17.90
2018-11-27T03:49:31.433Z,19.23
2018-11-27T03:52:05.422Z,18.27
2018-11-27T03:54:39.430Z,19.13
2018-11-27T03:57:13.417Z,20.07
2018-11-27T03:59:49.472Z,18.33
2018-11-27T04:02:23.527Z,18.60
2018-11-27T04:04:57.730Z,17.83
2018-11-27T04:07:31.595Z,17.37
2018-11-27T04:10:08.959Z,18.90
2018-11-27T04:12:42.984Z,20.47
2018-11-27T04:15:16.976Z,19.63
2018-11-27T04:17:50.936Z,19.20
2018-11-27T04:20:24.887Z,18.77
2018-11-27T04:22:58.844Z,18.13
2018-11-27T04:25:32.791Z,18.40
2018-11-27T04:28:07.218Z,17.37
2018-11-27T04:30:41.247Z,19.93
2018-11-27T04:33:15.222Z,19.70
2018-11-27T04:35:49.328Z,17.90
2018-11-27T04:38:23.358Z,18.80
2018-11-27T04:40:57.292Z,20.03
2018-11-27T04:43:31.222Z,18.73
2018-11-27T04:46:05.132Z,21.17
2018-11-27T04:48:39.064Z,21.10
2018-11-27T04:51:13.000Z,22.37
2018-11-27T04:53:46.916Z,18.43
2018-11-27T04:56:20.907Z,20.07
2018-11-27T04:58:54.869Z,19.60
2018-11-27T05:01:28.924Z,19.83
2018-11-27T05:04:02.941Z,20.83
2018-11-27T05:06:36.941Z,19.50
2018-11-27T05:09:10.975Z,19.93
2018-11-27T05:11:44.997Z,19.80
2018-11-27T05:14:18.994Z,20.70
2018-11-27T05:16:52.986Z,19.23
2018-11-27T05:19:26.920Z,21.50
2018-11-27T05:22:00.854Z,19.83
2018-11-27T05:24:34.861Z,22.20
2018-11-27T05:27:08.759Z,19.63
2018-11-27T05:29:42.652Z,20.00
2018-11-27T05:32:16.541Z,20.77
2018-11-27T05:34:50.725Z,19.30
2018-11-27T05:37:24.612Z,17.60
2018-11-27T05:39:58.660Z,19.80
2018-11-27T05:42:32.631Z,20.20
2018-11-27T05:45:08.463Z,19.47
2018-11-27T05:47:42.560Z,21.30
2018-11-27T05:50:17.131Z,19.17
2018-11-27T05:52:51.124Z,21.00
2018-11-27T05:55:25.017Z,21.40
2018-11-27T05:57:59.073Z,19.20
2018-11-27T06:00:33.001Z,22.20
2018-11-27T06:03:08.207Z,17.73
2018-11-27T06:05:42.298Z,22.50
2018-11-27T06:08:16.372Z,18.70
2018-11-27T06:10:50.462Z,18.20
2018-11-27T06:13:24.426Z,20.93
2018-11-27T06:15:58.402Z,21.00
2018-11-27T06:18:32.401Z,21.60
2018-11-27T06:21:06.534Z,18.53
2018-11-27T06:23:40.656Z,20.90
2018-11-27T06:26:14.825Z,22.13
2018-11-27T06:28:48.758Z,20.00
2018-11-27T06:31:22.749Z,22.53
2018-11-27T06:33:56.758Z,22.63
2018-11-27T06:36:30.866Z,24.57
2018-11-27T06:39:06.017Z,21.03
2018-11-27T06:41:40.104Z,22.93
2018-11-27T06:44:14.816Z,22.13
2018-11-27T06:46:48.766Z,20.00
2018-11-27T06:49:23.435Z,22.27
2018-11-27T06:51:57.861Z,24.37
2018-11-27T06:54:31.938Z,20.20
2018-11-27T06:57:06.182Z,21.83
2018-11-27T06:59:40.116Z,22.50
2018-11-27T07:02:14.235Z,19.40
2018-11-27T07:04:48.120Z,21.37
2018-11-27T07:07:22.451Z,21.30
2018-11-27T07:09:56.505Z,22.30
2018-11-27T07:12:30.684Z,22.13
2018-11-27T07:15:04.868Z,21.10
2018-11-27T07:17:38.913Z,23.27
2018-11-27T07:20:13.121Z,22.07
2018-11-27T07:22:47.028Z,22.80
2018-11-27T07:25:21.167Z,23.23
2018-11-27T07:27:55.223Z,22.83
2018-11-27T07:30:29.304Z,22.93
2018-11-27T07:33:03.479Z,22.87
2018-11-27T07:35:37.511Z,23.77
2018-11-27T07:38:12.288Z,21.17
2018-11-27T07:40:46.477Z,23.93
2018-11-27T07:43:20.588Z,21.37
2018-11-27T07:45:55.351Z,22.43
2018-11-27T07:48:29.044Z,19.80
2018-11-27T07:51:03.065Z,22.17
2018-11-27T07:53:37.119Z,24.27
2018-11-27T07:56:11.165Z,21.90
2018-11-27T07:58:45.250Z,21.03
2018-11-27T08:01:19.334Z,21.30
2018-11-27T08:03:53.527Z,24.53
2018-11-27T08:06:27.647Z,21.00
2018-11-27T08:09:02.248Z,21.57
2018-11-27T08:11:36.255Z,22.90
2018-11-27T08:14:10.427Z,21.80
2018-11-27T08:19:25.133Z,20.50
2018-11-27T08:22:01.311Z,22.63
2018-11-27T08:24:35.326Z,20.37
2018-11-27T08:27:09.684Z,20.50
2018-11-27T08:29:43.994Z,19.67
2018-11-27T08:32:18.175Z,20.10
2018-11-27T08:34:53.593Z,18.87
2018-11-27T08:37:27.662Z,18.13
2018-11-27T08:40:01.679Z,20.17
2018-11-27T08:42:35.650Z,22.20
2018-11-27T08:45:11.329Z,21.53
2018-11-27T08:47:45.690Z,19.73
2018-11-27T08:50:22.518Z,17.90
2018-11-27T08:53:00.421Z,20.60
2018-11-27T08:55:37.203Z,20.00
2018-11-27T08:58:25.742Z,20.77
2018-11-27T09:00:59.868Z,19.60
2018-11-27T09:03:33.780Z,22.03
2018-11-27T09:06:08.057Z,20.50
2018-11-27T09:08:42.317Z,18.80
2018-11-27T09:11:16.428Z,19.63
2018-11-27T09:13:50.585Z,18.23
2018-11-27T09:16:24.788Z,19.80
2018-11-27T09:18:58.985Z,20.10
2018-11-27T09:21:33.072Z,19.10
2018-11-27T09:24:07.131Z,20.90
2018-11-27T09:26:41.249Z,17.23
2018-11-27T09:29:15.293Z,18.13
2018-11-27T09:31:49.393Z,18.87
2018-11-27T09:34:24.206Z,18.73
2018-11-27T09:36:58.536Z,18.90
2018-11-27T09:39:32.745Z,17.30
2018-11-27T09:42:06.972Z,19.50
2018-11-27T09:44:41.084Z,20.73
2018-11-27T09:47:15.102Z,21.17
2018-11-27T09:49:49.218Z,18.60
2018-11-27T09:52:23.322Z,18.77
2018-11-27T09:54:57.468Z,20.70
2018-11-27T09:57:31.995Z,20.70
2018-11-27T10:00:36.731Z,23.00
2018-11-27T10:03:15.467Z,22.43
2018-11-27T10:05:49.625Z,20.17
2018-11-27T10:08:23.847Z,21.73
2018-11-27T10:10:58.074Z,20.90
2018-11-27T10:13:32.097Z,19.87
2018-11-27T10:16:06.158Z,20.30
2018-11-27T10:18:40.292Z,20.57
2018-11-27T10:21:14.386Z,20.90
2018-11-27T10:23:48.372Z,20.13
2018-11-27T10:26:22.427Z,22.13
2018-11-27T10:28:56.531Z,21.87
2018-11-27T10:31:30.754Z,21.80
2018-11-27T10:34:05.650Z,22.00
2018-11-27T10:36:39.827Z,23.10
2018-11-27T10:39:14.078Z,24.47
2018-11-27T10:41:48.161Z,23.97
2018-11-27T10:44:22.940Z,22.80
2018-11-27T10:46:57.132Z,25.90
2018-11-27T10:49:31.733Z,23.30
2018-11-27T10:52:06.205Z,23.73
2018-11-27T10:54:40.260Z,26.53
2018-11-27T10:57:14.416Z,24.83
2018-11-27T10:59:48.561Z,26.53
2018-11-27T11:02:28.117Z,27.77
2018-11-27T11:05:03.039Z,26.77
2018-11-27T11:07:37.833Z,27.77
2018-11-27T11:10:12.168Z,27.03
2018-11-27T11:12:46.312Z,26.57
2018-11-27T11:15:20.991Z,27.03
2018-11-27T11:17:55.194Z,29.50
2018-11-27T11:20:29.656Z,29.57
2018-11-27T11:23:03.714Z,26.93
2018-11-27T11:25:37.972Z,30.20
2018-11-27T11:28:12.854Z,33.93
2018-11-27T11:30:47.721Z,28.80
2018-11-27T11:33:23.474Z,31.40
2018-11-27T11:35:58.092Z,28.57
2018-11-27T11:38:33.202Z,31.50
2018-11-27T11:41:07.404Z,26.63
2018-11-27T11:43:42.059Z,27.40
2018-11-27T11:46:16.921Z,29.23
2018-11-27T11:48:52.428Z,29.93
2018-11-27T11:51:26.882Z,26.90
2018-11-27T11:54:01.516Z,27.27
2018-11-27T11:56:35.752Z,27.63
2018-11-27T11:59:10.010Z,26.77
2018-11-27T12:01:44.299Z,27.40
2018-11-27T12:04:18.387Z,26.83
2018-11-27T12:06:52.644Z,27.10
2018-11-27T12:09:26.898Z,29.67
2018-11-27T12:12:01.734Z,28.57
2018-11-27T12:14:36.021Z,28.17
2018-11-27T12:17:10.606Z,27.40
2018-11-27T12:19:44.499Z,26.90
2018-11-27T12:22:19.864Z,28.63
2018-11-27T12:24:54.029Z,27.50
2018-11-27T12:27:28.702Z,28.43
2018-11-27T12:30:02.771Z,30.10
2018-11-27T12:32:36.684Z,25.63
2018-11-27T12:35:11.256Z,29.83
2018-11-27T12:37:45.336Z,32.10
2018-11-27T12:40:20.221Z,26.63
2018-11-27T12:42:54.802Z,26.90
2018-11-27T12:45:30.181Z,26.10
2018-11-27T12:48:04.475Z,25.20
2018-11-27T12:50:42.996Z,29.60
2018-11-27T12:53:17.610Z,31.03
2018-11-27T12:55:51.605Z,28.23
2018-11-27T12:58:25.801Z,28.13
2018-11-27T13:00:59.787Z,27.77
2018-11-27T13:03:33.820Z,29.77
2018-11-27T13:06:07.817Z,32.27
2018-11-27T13:08:45.863Z,30.97
2018-11-27T13:11:19.936Z,33.47
2018-11-27T13:13:53.973Z,32.20
2018-11-27T13:16:27.932Z,30.97
2018-11-27T13:19:01.882Z,29.70
2018-11-27T13:21:35.837Z,30.07
2018-11-27T13:24:09.792Z,29.80
2018-11-27T13:26:43.956Z,27.93
2018-11-27T13:29:18.055Z,27.40
2018-11-27T13:31:52.170Z,28.83
2018-11-27T13:34:26.064Z,29.07
2018-11-27T13:37:00.095Z,28.07
2018-11-27T13:39:36.696Z,25.80
2018-11-27T13:42:10.724Z,29.40
2018-11-27T13:44:44.916Z,27.27
2018-11-27T13:47:19.091Z,25.00
2018-11-27T13:49:53.163Z,27.53
2018-11-27T13:52:27.238Z,26.40
2018-11-27T13:55:01.425Z,28.30
2018-11-27T13:57:35.456Z,26.90
2018-11-27T14:00:10.367Z,29.90
2018-11-27T14:02:46.381Z,26.60
2018-11-27T14:05:21.191Z,25.23
2018-11-27T14:07:55.329Z,27.40
2018-11-27T14:10:29.344Z,28.07
2018-11-27T14:13:03.559Z,25.93
2018-11-27T14:15:38.003Z,29.97
2018-11-27T14:18:12.111Z,27.00
2018-11-27T14:20:46.225Z,26.77
2018-11-27T14:23:20.509Z,23.47
2018-11-27T14:25:54.656Z,31.20
2018-11-27T14:28:29.167Z,26.67
2018-11-27T14:31:03.678Z,23.23
2018-11-27T14:33:37.769Z,22.63
2018-11-27T14:36:11.953Z,26.13
2018-11-27T14:38:46.683Z,26.50
2018-11-27T14:41:20.841Z,22.77
2018-11-27T14:43:54.956Z,20.50
2018-11-27T14:46:29.768Z,20.43
2018-11-27T14:49:04.031Z,19.43
2018-11-27T14:51:38.554Z,21.50
2018-11-27T14:54:13.782Z,21.37
2018-11-27T14:56:48.131Z,18.80
2018-11-27T14:59:22.264Z,20.23
2018-11-27T15:01:57.518Z,20.97
2018-11-27T15:04:32.218Z,19.43
2018-11-27T15:07:09.640Z,14.73
2018-11-27T15:09:45.050Z,16.80
2018-11-27T15:12:21.517Z,16.70
2018-11-27T15:15:04.561Z,17.53
2018-11-27T15:17:41.314Z,18.13
2018-11-27T21:21:05.323Z,16.83
2018-11-27T21:23:40.500Z,17.33
2018-11-27T21:26:15.415Z,16.67
2018-11-27T21:28:51.312Z,17.83
2018-11-27T21:31:26.076Z,15.63
2018-11-27T21:34:06.133Z,16.47
2018-11-27T21:36:41.428Z,14.83
2018-11-27T21:39:16.656Z,15.47
2018-11-27T21:41:51.520Z,15.20
2018-11-27T21:44:26.224Z,16.93
2018-11-27T21:47:01.843Z,15.67
2018-11-27T21:49:36.775Z,15.80
2018-11-27T21:52:11.133Z,16.67
2018-11-27T21:54:45.687Z,15.43
2018-11-27T21:57:22.017Z,16.43
2018-11-27T21:59:56.336Z,17.53
2018-11-27T22:02:31.991Z,17.20
2018-11-27T22:05:07.354Z,16.00
2018-11-27T22:07:41.628Z,16.90
2018-11-27T22:10:16.902Z,15.33
2018-11-27T22:12:53.666Z,15.47
2018-11-27T22:15:29.674Z,17.60
2018-11-27T22:18:04.559Z,18.77
2018-11-27T22:20:39.116Z,18.20
2018-11-27T22:23:14.131Z,18.50
2018-11-27T22:25:49.272Z,18.80
2018-11-27T22:28:24.645Z,18.60
2018-11-27T22:30:59.216Z,16.80
2018-11-27T22:33:33.796Z,16.37
2018-11-27T22:36:08.074Z,16.40
2018-11-27T22:38:42.420Z,18.80
2018-11-27T22:41:16.911Z,17.60
2018-11-27T22:43:51.822Z,18.30
2018-11-27T22:46:27.109Z,20.07
2018-11-27T22:49:01.604Z,18.63
2018-11-27T22:51:36.863Z,19.30
2018-11-27T22:54:11.101Z,17.27
2018-11-27T22:56:45.587Z,19.77
2018-11-27T22:59:19.870Z,17.80
2018-11-27T23:01:54.396Z,19.87
2018-11-27T23:04:29.035Z,17.90
2018-11-27T23:07:04.041Z,18.87
2018-11-27T23:09:38.981Z,19.17
2018-11-27T23:12:13.224Z,18.70
2018-11-27T23:14:48.926Z,21.00
2018-11-27T23:17:23.009Z,20.57
2018-11-27T23:19:57.394Z,20.00
2018-11-27T23:22:31.663Z,18.20
2018-11-27T23:25:06.644Z,18.83
2018-11-27T23:27:42.010Z,20.13
2018-11-27T23:30:18.664Z,20.20
2018-11-27T23:32:54.310Z,19.80
2018-11-27T23:35:28.721Z,20.80
2018-11-27T23:38:02.960Z,20.97
2018-11-27T23:40:37.617Z,20.00
2018-11-27T23:43:11.917Z,19.40
2018-11-27T23:45:46.187Z,18.87
2018-11-27T23:48:20.392Z,18.50
2018-11-27T23:50:54.719Z,19.70
2018-11-27T23:53:28.968Z,18.93
2018-11-27T23:56:03.210Z,21.77
2018-11-27T23:58:37.376Z,19.33
